Minden, Canada
Current Conditions -  °F | °C
As of 5:00 PM on Saturday 25 Oct 2014 (Local Time) from CYQA Reporting Station
Few Clouds Few Clouds  
Wind Chill: 55°   Ceiling: Unl
Heat Index: 55°   Visibility: 9mi
Dew Point: 43°   Wind: 14mph
Humidity: 63%   Direction: 270°W
Pressure: 29.54"   Gusts: 26mph
Location:  44.93°N, 78.73°W
Report Text: CYQA 252100Z AUTO 27012G23KT 240V300 9SM FEW039 13/06 A2954 RMK SLP005 DENSITY ALT 1300FT
Loading
Personal Weather Stations






























Interactive Weather Map
Tropical Storm Tracking
New forecast layout! Learn more

10-Day Weather Forecast

Advertisements
Track Severe Weather on mobile